createdAt,value
2019-02-24T00:04:41.814Z,3.10
2019-02-24T00:15:38.437Z,3.10
2019-02-24T00:26:35.175Z,3.09
2019-02-24T00:37:37.309Z,3.09
2019-02-24T00:48:36.293Z,3.09
2019-02-24T00:59:36.308Z,3.09
2019-02-24T01:10:39.088Z,3.08
2019-02-24T01:21:39.859Z,3.07
2019-02-24T01:32:45.205Z,3.07
2019-02-24T01:43:45.704Z,3.06
2019-02-24T01:54:45.486Z,3.06
2019-02-24T02:05:45.431Z,3.06
2019-02-24T02:16:42.957Z,3.06
2019-02-24T02:27:45.511Z,3.05
2019-02-24T02:38:45.846Z,3.05
2019-02-24T02:49:46.196Z,3.04
2019-02-24T03:00:49.571Z,3.04
2019-02-24T03:11:50.556Z,3.04
2019-02-24T03:22:51.658Z,3.04
2019-02-24T03:33:54.092Z,3.03
2019-02-24T03:44:58.348Z,2.95
2019-02-24T03:55:47.134Z,3.02
2019-02-24T04:06:30.958Z,3.00
2019-02-24T04:17:29.417Z,3.00
2019-02-24T04:28:32.855Z,3.00
2019-02-24T04:39:35.423Z,3.00
2019-02-24T04:50:32.134Z,3.00
2019-02-24T05:01:37.064Z,3.00
2019-02-24T05:12:35.606Z,3.00
2019-02-24T05:23:35.227Z,2.99
2019-02-24T05:34:36.525Z,2.99
2019-02-24T05:45:33.510Z,2.99
2019-02-24T05:56:31.529Z,2.99
2019-02-24T06:07:30.483Z,2.99
2019-02-24T06:18:34.045Z,3.00
2019-02-24T06:29:38.274Z,3.02
2019-02-24T06:40:38.679Z,3.04
2019-02-24T06:51:39.084Z,3.08
2019-02-24T07:02:43.928Z,3.08
2019-02-24T07:13:46.200Z,3.09
2019-02-24T07:24:47.695Z,3.17
2019-02-24T07:35:47.812Z,3.19
2019-02-24T07:46:39.587Z,3.20
2019-02-24T07:57:28.291Z,3.21
2019-02-24T08:08:29.358Z,3.27
2019-02-24T08:19:30.349Z,3.30
2019-02-24T08:30:41.240Z,3.34
2019-02-24T08:41:37.153Z,3.39
2019-02-24T08:52:33.029Z,3.39
2019-02-24T09:03:31.416Z,3.33
2019-02-24T09:14:32.461Z,3.33
2019-02-24T09:25:31.643Z,3.33
2019-02-24T09:36:32.309Z,3.34
2019-02-24T09:47:28.729Z,3.34
2019-02-24T09:58:30.916Z,3.34
2019-02-24T10:09:29.385Z,3.34
2019-02-24T10:20:29.693Z,3.34
2019-02-24T10:31:26.502Z,3.34
2019-02-24T10:42:10.872Z,3.40
2019-02-24T10:53:06.866Z,3.41
2019-02-24T11:04:02.828Z,3.36
2019-02-24T11:15:01.332Z,3.37
2019-02-24T11:25:56.762Z,3.36
2019-02-24T11:37:00.528Z,3.37
2019-02-24T11:47:59.907Z,3.36
2019-02-24T11:58:59.795Z,3.37
2019-02-24T12:09:54.673Z,3.37
2019-02-24T12:20:50.170Z,3.36
2019-02-24T12:31:56.632Z,3.36
2019-02-24T12:42:54.514Z,3.37
2019-02-24T12:53:56.211Z,3.37
2019-02-24T13:04:55.578Z,3.37
2019-02-24T13:15:53.984Z,3.38
2019-02-24T13:26:55.200Z,3.39
2019-02-24T13:37:59.294Z,3.40
2019-02-24T13:48:58.102Z,3.39
2019-02-24T14:00:00.572Z,3.39
2019-02-24T14:10:59.012Z,3.38
2019-02-24T14:21:48.539Z,3.38
2019-02-24T14:32:44.162Z,3.38
2019-02-24T14:43:35.679Z,3.40
2019-02-24T14:54:30.468Z,3.41
2019-02-24T15:05:29.730Z,3.41
2019-02-24T15:16:26.466Z,3.40
2019-02-24T15:27:26.269Z,3.39
2019-02-24T15:38:29.405Z,3.39
2019-02-24T15:49:28.175Z,3.37
2019-02-24T16:00:26.199Z,3.36
2019-02-24T16:11:24.635Z,3.34
2019-02-24T16:22:25.018Z,3.34
2019-02-24T16:33:27.583Z,3.33
2019-02-24T16:44:25.537Z,3.33
2019-02-24T16:55:26.968Z,3.32
2019-02-24T17:06:26.099Z,3.31
2019-02-24T17:17:15.275Z,3.31
2019-02-24T17:28:14.571Z,3.30
2019-02-24T17:39:05.752Z,3.30
2019-02-24T17:50:05.757Z,3.29
2019-02-24T18:01:09.198Z,3.29
2019-02-24T18:12:08.343Z,3.29
2019-02-24T18:23:06.055Z,3.28
2019-02-24T18:34:09.321Z,3.28
2019-02-24T18:45:05.529Z,3.27
2019-02-24T18:56:02.138Z,3.27
2019-02-24T19:07:02.171Z,3.27
2019-02-24T19:17:59.320Z,3.26
2019-02-24T19:28:36.631Z,3.25
2019-02-24T19:39:35.401Z,3.25
2019-02-24T19:50:35.036Z,3.25
2019-02-24T20:01:36.686Z,3.25
2019-02-24T20:12:31.554Z,3.25
2019-02-24T20:23:27.704Z,3.25
2019-02-24T20:34:30.053Z,3.24
2019-02-24T20:45:26.415Z,3.24
2019-02-24T20:56:22.004Z,3.23
2019-02-24T21:07:25.421Z,3.23
2019-02-24T21:18:26.837Z,3.23
2019-02-24T21:29:25.917Z,3.23
2019-02-24T21:40:29.594Z,3.22
2019-02-24T21:51:27.536Z,3.22
2019-02-24T22:02:32.086Z,3.22
2019-02-24T22:13:34.074Z,3.22
2019-02-24T22:24:31.789Z,3.21
2019-02-24T22:35:36.382Z,3.21
2019-02-24T22:46:38.588Z,3.21
2019-02-24T22:57:40.060Z,3.21
2019-02-24T23:08:38.242Z,3.20
2019-02-24T23:19:35.776Z,3.20
2019-02-24T23:30:34.936Z,3.20
2019-02-24T23:41:32.284Z,3.19
2019-02-24T23:52:34.031Z,3.19
